Nicholas Reid

Olheiro-Chefe - Arsenal
22 Fev 2028
Terça-feira
Processo

Personalidade

Adaptabilidade (9) Ambição (12) Controvérsia (3) Lealdade (18) Pressão (20) Profissionalismo (19) Espírito Esportivo (15) Temperamento (4)

Perfil

Estilo de Treinamento Democrático
Licença Continental B
Determinação 16
Gestão de Pessoas 14
Motivação 12
Disciplina 8
Satisfação no Trabalho
100%
Fadiga
0%
Função Olheiro-Chefe
Salário 42.4K p/s
Contrato 14.03.2029

Desempenho

Comportamento Bom
Eficácia do Treinamento
66%
Desenvolvimento do Jogador
70%
Prevenção de Lesões
75%
Implementação Tática
85%

Eventos Recentes

Avaliou um jogador agora
Avaliou um jogador agora
Participou de uma reunião de recrutamento agora
Participou de uma reunião de recrutamento agora
Recomendou um alvo de transferência agora
Avaliou um jogador 7d atrás
Avaliou um jogador 7d atrás
Avaliou um jogador 7d atrás

Monitorando agora

88
Jogador Clube Status Habilidade Confiança Observado Última observação Último voto
Christ Inao Oulaï Fiorentina Ativo 137 / 152 40% 37 21.02.2028 -
Harrison Armstrong Everton Ativo 138 / 138 40% 17 21.02.2028 -
Jorthy Mokio ADO Den Haag Ativo 132 / 133 40% 3 21.02.2028 -
Honest Ahanor AS Roma Ativo 134 / 143 40% 1 21.02.2028 -
Sidiki Chérif Everton Ativo 132 / 143 40% 1 21.02.2028 -
Babis Kostoulas Brighton Ativo 145 / 136 40% 1 21.02.2028 -
Christos Mouzakitis Hull City Ativo 135 / 139 40% 20 18.02.2028 -
Luka Vušković Manchester United Ativo 146 / 157 40% 27 17.02.2028 -
Archie Gray Derby County Ativo 156 / 145 40% 14 17.02.2028 -
Ayden Heaven Luton Town Ativo 145 / 152 40% 13 17.02.2028 -
Veljko Milosavljević Aston Villa Ativo 147 / 158 40% 34 16.02.2028 -
Giovanni Leoni Bradford City Ativo 142 / 156 40% 16 16.02.2028 -
Myles Lewis-Skelly Birmingham Ativo 151 / 164 40% 19 15.02.2028 -
Estêvão Millwall Ativo 148 / 144 40% 2 14.02.2028 -
Ibrahim Mbaye Newcastle United Ativo 139 / 136 40% 1 14.02.2028 -
Shea Lacey Wolverhampton Ativo 133 / 146 40% 1 10.02.2028 -
Franco Mastantuono Real Madrid Ativo 136 / 146 40% 1 10.02.2028 -
Noahkai Banks Hamburger SV Ativo 141 / 151 40% 19 09.02.2028 -
Niccolò Fortini Fiorentina Ativo 137 / 136 40% 13 06.02.2028 -
Jofre Torrents Ajax Ativo 133 / 144 40% 2 06.02.2028 -
Hayden Hackney Everton Perdido 138 / 136 83% 1 31.01.2028 -
Dayann Methalie Aston Villa Ativo 141 / 133 40% 21 24.01.2028 -
Trey Nyoni Rotherham United Ativo 133 / 138 40% 20 24.01.2028 -
Mao Hosoya Everton Ativo 134 / 135 90% 1 01.01.2028 Aprovar
Ilyas Ansah Hull City Perdido 132 / 133 83% 1 01.01.2028 -
Davide Bartesaghi AC Milan Ativo 142 / 134 40% 28 22.12.2027 -
Caleb Yirenkyi Coventry City Ativo 140 / 146 40% 14 22.12.2027 -
Abubacarr Sedi Kinteh Al-Hilal Ativo 132 / 127 40% 10 11.12.2027 -
Kosta Nedeljković Aston Villa Ativo 137 / 145 40% 10 09.12.2027 -
Malick Yalcouyé Brighton Ativo 127 / 128 40% 2 08.10.2027 -
Eliás Montiel Werder Bremen Ativo 131 / 145 40% 9 24.09.2027 -
Johan Manzambi Newcastle United Ativo 148 / 162 40% 24 13.09.2027 -
Aleksandar Stanković Como Ativo 136 / 135 40% 2 24.07.2027 -
Santiago Castro AS Roma Ativo 145 / 147 40% 1 13.07.2027 -
Franculino Crystal Palace Ativo 142 / 152 40% 1 13.07.2027 -
Matvey Kislyak CSKA Moscow Ativo 135 / 147 40% 12 21.06.2027 -
Léo Scienza Southampton Ativo 142 / 142 83% 1 02.06.2027 Aprovar
Iliman N'Diaye Everton Ativo 161 / 150 83% 1 01.06.2027 Aprovar
Romelu Witsel Liverpool Ativo 168 / 167 40% 2 31.05.2027 -
Valentin Atangana Al-Ahli Ativo 123 / 115 40% 6 25.04.2027 -
Dean Huijsen Villarreal Ativo 145 / 152 40% 8 05.04.2027 -
Jack Hinshelwood Brighton Ativo 143 / 155 40% 6 04.04.2027 -
Nico O'Reilly Manchester City Ativo 154 / 168 40% 2 12.03.2027 -
Matheus Cunha Manchester United Ativo 163 / 146 40% 5 18.01.2027 -
Themba Ngcobo SuperSport United Ativo 123 / 116 40% 1 18.01.2027 -
Nicolas Jackson Aston Villa Ativo 150 / 151 40% 1 12.01.2027 -
Antoine Semenyo Manchester City Ativo 159 / 161 40% 3 31.12.2026 -
Kenan Yıldız Juventus Ativo 160 / 153 40% 1 31.12.2026 -
Senne Lammens Manchester United Ativo 150 / 147 40% 18 30.12.2026 -
Gianluigi Donnarumma Manchester City Ativo 170 / 181 40% 24 28.12.2026 Observar
Diogo Costa Manchester City Negociando 161 / 159 40% 17 27.12.2026 -
Jacob Ramsey Newcastle United Ativo 152 / 139 40% 1 09.12.2026 -
Amad Manchester United Ativo 157 / 149 40% 2 22.11.2026 -
Mason Mount Manchester United Ativo 149 / 146 40% 1 22.11.2026 -
Florian Wirtz Liverpool Ativo 172 / 167 40% 4 10.11.2026 -
Siyanda Ndlovu Bloemfontein Celtic Ativo 108 / 129 40% 1 08.11.2026 -
Callum Hudson-Odoi Nottingham Forest Ativo 154 / 141 40% 1 07.11.2026 -
Mandla Erasmus SuperSport United Ativo 124 / 108 40% 2 02.11.2026 -
Enzo Fernández Manchester City Ativo 170 / 159 40% 2 29.10.2026 -
Alexis Mac Allister Liverpool Ativo 158 / 160 40% 1 29.10.2026 -
Mduduzi Shabalala Kaizer Chiefs Ativo 116 / 117 40% 1 27.10.2026 -
Antonio Galeano Remo Stars Ativo 120 / 126 40% 2 26.10.2026 -
Matt O'Riley Brighton Ativo 149 / 143 40% 1 22.10.2026 -
Bénie Traoré New York City Ativo 120 / 139 40% 5 21.10.2026 -
Marco Pašalić Orlando City Ativo 126 / 126 40% 2 20.10.2026 -
Tshepang Moremi Orlando Pirates Ativo 122 / 130 40% 2 19.10.2026 -
Williams Manyama SuperSport United Ativo 114 / 107 40% 1 19.10.2026 -
Antony Portland Timbers Ativo 125 / 132 40% 3 18.10.2026 -
Gabriel Martinelli Brighton Ativo 157 / 160 40% 5 14.10.2026 -
David Da Costa Portland Timbers Ativo 134 / 130 40% 2 13.10.2026 -
Phil Foden Manchester City Ativo 172 / 175 40% 2 06.10.2026 -
Joaquín Pereyra Minnesota United FC Ativo 125 / 129 40% 3 03.10.2026 -
Telasco Segovia Inter Miami CF Ativo 135 / 119 40% 3 03.10.2026 -
Bryan Ramírez FC Cincinnati Ativo 122 / 139 40% 3 02.10.2026 -
Martín Ojeda Orlando City Ativo 134 / 129 40% 1 01.10.2026 -
Iván Angulo Orlando City Ativo 122 / 139 40% 3 30.09.2026 -
Djordje Mihailović Toronto FC Ativo 128 / 115 40% 1 24.09.2026 -
Juan Manuel Sanabria Real Salt Lake Ativo 130 / 134 40% 1 18.09.2026 -
Samuel Anakwe Remo Stars Ativo 96 / 98 40% 1 16.09.2026 -
Theo Corbeanu Toronto FC Ativo 121 / 136 40% 2 15.09.2026 -
Ted Ku-DiPietro Colorado Rapids Ativo 121 / 110 40% 1 15.09.2026 -
Yannick Bright Inter Miami CF Ativo 116 / 117 40% 1 11.09.2026 -
Alexander Aravena Portland Timbers Ativo 123 / 132 40% 1 10.09.2026 -
Patrick Yazbek Nashville SC Ativo 124 / 129 40% 2 08.09.2026 -
Santiago Rodríguez Columbus Crew Ativo 121 / 134 40% 1 08.09.2026 -
Duncan McGuire Houston Dynamo Ativo 118 / 127 40% 1 07.09.2026 -
Dango Ouattara Brentford Ativo 138 / 133 40% 1 17.08.2026 -
Bradley Barcola Liverpool Ativo 160 / 170 40% 2 10.08.2026 -